Saraland, AL (36571)

5:47 PM CDT on July 25, 2017 (GMT -0500)
Spanish Trace | | Change Station

Elev 69 ft 30.83 °N, 88.11 °W | Updated 24 seconds ago

Mostly Cloudy
Mostly Cloudy
81.9 °F
Feels Like 90 °F
N
0.0
Wind Variable Wind from East

Today
High -- | Low -- °F
--% Chance of Precip.
Yesterday
High -- | Low -- °F
Precip. -- in
Pressure 30.08 in
Visibility 10.0 miles
Clouds Scattered Clouds 1800 ft
Heat Index 90 °F
Dew Point 77 °F
Humidity 85%
Rainfall 0.97 in
Snow Depth Not available.
6:05 AM 7:51 PM
Waxing Crescent, 9% visible
METAR KBFM 252153Z 30005KT 10SM SCT018 29/25 A3008 RMK AO2 SLP186 TCU DSNT N-E T02940250
Pressure 30.08 in
Visibility 10.0 miles
Clouds Scattered Clouds 1800 ft
Heat Index 90 °F
Dew Point 77 °F
Humidity 85%
Rainfall 0.97 in
Snow Depth Not available.
6:05 AM 7:51 PM
Waxing Crescent, 9% visible
METAR KBFM 252153Z 30005KT 10SM SCT018 29/25 A3008 RMK AO2 SLP186 TCU DSNT N-E T02940250

Get Severe Weather Alerts

Thanks for signing up!

Be on the lookout for a verification email in your inbox.

You'll start receiving the daily forecast at 6 AM.

×

10-Day Weather Forecast

Almanac

Astronomy

Jul. 25, 2017 Rise Set
Actual Time
Civil Twilight
Nautical Twilight
Astronomical Twilight
Moon
Length of Visible Light
Length of Day
Tomorrow will be .
, % of the Moon is Illuminated

Today's Extremes

State Highs State Lows

Community

WunderPhotos

Category 6

Welcome to Category 6. This is the collective home for Weather Underground's featured writeups by Dr. Jeff Masters (right), Bob Henson (left), Chris Burt, and other regular contributors.

Nearby

Air Quality

  Air Quality AQ Index Pollutant
Not available.

Snow Depth

Station Depth Elevation

Earthquake Activity

City Distance Mag. Time & Date
Minimum magnitude displayed is 2.5.

Coastal Water Temperatures

Place Temperature

Stations

Nearby Weather Stations

Station Location Temp. Windchill Dew Point Humidity Wind Precip. Elev Updated Type
                   

Watches & Warnings

There are currently no watches in effect.